Huvudsida
METAR-TAF:

METAR-TAF

Flygplatser :

Turaif, Saudiarabien

latitud: 31-41N, longitud: 038-44E, höjd: 813 m

Aktuellt väderrapport

Denna rapport gjordes för 1 timme och 24 minuter sedan, klockan 13:00 UTC
Vind 12 kt från väst/sydväst
Temperatur 22°C
Fuktighet 29%
Tryck 1010 hPa
Sikt 10 km eller mer
Inga moln under 1 500 m eller inga cumulonimbus

METAR: OETR 091300Z 24012KT CAVOK 22/03 Q1010

Tid: 17:24 (14:24 UTC)

Väderprognos

Denna rapport gjordes för 3 timmar och 24 minuter sedan, klockan 11:00 UTC
Prognos gäller från 09 kl. 12 UTC till 10 kl. 18 UTC
Vind 8 kt från väst/nordväst i byarna ända upp till 18 kt
Sikt: 7000 m
Blir
från 09 kl. 18 UTC till 09 kl. 20 UTC
Vind 3 kt varierande vindriktning
Temporärt
från 10 kl. 00 UTC till 10 kl. 05 UTC
Sikt: 3000 m
fuktdis
Blir
från 10 kl. 06 UTC till 10 kl. 08 UTC
Vind 14 kt från väst/nordväst

TAF: OETR 091100Z 0912/1018 29008G18KT 7000 NSC BECMG 0918/0920 VRB03KT TEMPO 1000/1005 3000 BR BECMG 1006/1008 29014KT

Aktuella väderrapporter och prognoser från 4000 flygplatser (METAR- och TAF-rapporter).

De tillgängliga stationerna syns som gula och röda prickar på kartan.

För musen över prickarna för att se namnen på stationerna.

Klicka sedan för att få väderrapporter och prognoser.

För att ändra kartan: Klicka på de gröna knapparna med ett svart kors på för att zooma in; den gröna knappen med ett streck på för att zooma ut; eller på de gröna pilarna för angränsande kartor.


METAR-TAF: